Meteo Giornale » Osservazioni meteo Italia » Milano-Malpensa

ore: 03:50 - Osservazioni Meteo Milano-Malpensa
Lat. 45° 37' N Lon. 8° 44' E Alt. 234 metri s.l.m.

sereno Europe/Rome

-0 °C

Sereno

Temp. 24 Ore

-0 °C

14 °C

Nord

9.3 Km/h

Dew point -0 °C

Umidità 100 %

Visibilità  10 Km

Il sole sorge alle ore 07:29

Il sole tramonta alle ore 16:52

Data e Ora Cielo e Fenomeni T °C DP °C Um. % Pres. hPa Vis. km Vento km/h
Oggi h: 03:50 sereno Sereno -0 -0 100 1015 10 N 9.3
Oggi h: 03:20 sereno Sereno 0 -0 100 1015 10 N/NE 7.4
Oggi h: 02:50 sereno Sereno -0 -0 100 1015 10 NE 7.4
Oggi h: 02:20 sereno Sereno 0 -0 100 1016 10 N/NE 7.4
Oggi h: 01:50 sereno Sereno 0 0 100 1016 10 N/NE 7.4
Oggi h: 01:20 sereno Sereno 0 -0 100 1016 10 N 9.3
Oggi h: 00:50 sereno Sereno 0 0 100 1016 10 N/NE 7.4
Oggi h: 00:20 sereno Sereno 0 -0 100 1016 10 N 7.4
Ieri h: 23:50 sereno Sereno 1 0 93 1017 10 N/NE 7.4
Ieri h: 23:20 sereno Sereno 1 0 93 1017 10 N/NE 11.1
Ieri h: 22:50 sereno Sereno 1 0 93 1017 10 N 5.5
Ieri h: 22:20 sereno Sereno 2 1 93 1017 10 N 3.7
Ieri h: 21:50 sereno Sereno 2 1 93 1017 10 N 5.5
Ieri h: 21:20 sereno Sereno 2 1 93 1017 10 N 3.7
Ieri h: 20:50 sereno Sereno 3 2 93 1017 10 N/NE 7.4
Ieri h: 20:20 sereno Sereno 3 1 86 1017 10 N/NE 7.4
Ieri h: 19:50 sereno Sereno 4 3 93 1017 10 N 3.7
Ieri h: 19:20 sereno Sereno 4 2 86 1018 10 N 5.5
Ieri h: 18:50 sereno Sereno 5 3 86 1018 10 N 5.5
Ieri h: 18:20 sereno Sereno 7 3 75 1017 10 N 1.8
Ieri h: 17:20 sereno Sereno 11 4 61 1018 10 O 9.3
Ieri h: 16:50 sereno Sereno 12 4 57 1017 10 O 7.4
Ieri h: 16:20 sereno Sereno 13 5 58 1017 10 SO 7.4
Ieri h: 15:50 sereno Sereno 13 5 58 1017 10 S/SO 7.4
Ieri h: 15:20 sereno Sereno 14 5 54 1017 10 S/SO 7.4
Ieri h: 14:50 sereno Sereno 14 4 50 1018 10 N 5.5
Ieri h: 14:20 sereno Sereno 14 4 50 1018 10 SO 7.4
Ieri h: 13:50 sereno Sereno 14 4 50 1018 10 SO 7.4
Ieri h: 13:20 sereno Sereno 14 4 50 1018 10 SO 9.3
Ieri h: 12:50 sereno Sereno 13 3 50 1018 10 O/SO 7.4
Ieri h: 12:20 sereno Sereno 13 3 50 1019 10 N 5.5
Ieri h: 11:50 sereno Sereno 12 4 57 1019 10 N 3.7
Ieri h: 11:20 sereno Sereno 12 4 57 1019 10 N 3.7
Ieri h: 10:50 sereno Sereno 11 4 61 1019 10 N 1.8
Ieri h: 10:20 sereno Sereno 10 3 61 1019 10 N 5.5
Ieri h: 09:50 sereno Sereno 8 3 70 1019 10 N 7.4
Ieri h: 09:20 sereno Sereno 7 4 81 1019 10 N 9.3
Ieri h: 08:50 sereno Sereno 4 2 86 1019 10 N 5.5
Ieri h: 08:20 sereno Sereno 1 0 93 1019 10 N 9.3
Ieri h: 07:50 sereno Sereno 2 -0 86 1019 10 N 9.3
Ieri h: 07:20 sereno Sereno 2 1 93 1019 10 N 9.3
Ieri h: 06:50 sereno Sereno 1 0 93 1018 10 N 7.4
Ieri h: 06:20 sereno Sereno 0 -0 100 1018 10 N 9.3
Ieri h: 05:50 sereno Sereno 1 0 93 1018 10 N 7.4
Ieri h: 05:20 sereno Sereno 3 2 93 1018 10 N 7.4
Ieri h: 04:50 nuvoloso Nuvoloso 3 2 93 1019 10 N 11.1
Ieri h: 04:20 nuvoloso Nuvoloso 2 1 93 1019 10 N 13
Ieri h: 03:50 sereno Sereno 1 0 93 1019 10 N 13